sensor_id;sensor_type;location;lat;lon;timestamp;P1;P2;P0
80861;PMS5003;71798;54.942;73.444;2023-10-09T00:00:15;4.50;4.00;3.00
80861;PMS5003;71798;54.942;73.444;2023-10-09T00:03:01;4.00;4.00;2.00
80861;PMS5003;71798;54.942;73.444;2023-10-09T00:05:28;5.00;4.00;3.00
80861;PMS5003;71798;54.942;73.444;2023-10-09T00:08:17;6.50;6.00;3.00
80861;PMS5003;71798;54.942;73.444;2023-10-09T00:10:51;10.00;8.00;5.00
80861;PMS5003;71798;54.942;73.444;2023-10-09T00:13:23;9.00;8.00;5.00
80861;PMS5003;71798;54.942;73.444;2023-10-09T00:16:04;6.25;5.75;4.00
80861;PMS5003;71798;54.942;73.444;2023-10-09T00:18:43;6.00;6.00;4.00
80861;PMS5003;71798;54.942;73.444;2023-10-09T00:21:17;5.00;5.00;3.00
80861;PMS5003;71798;54.942;73.444;2023-10-09T00:23:47;6.25;5.50;3.25
80861;PMS5003;71798;54.942;73.444;2023-10-09T00:26:25;3.25;3.00;2.00
80861;PMS5003;71798;54.942;73.444;2023-10-09T00:28:53;4.25;4.00;2.00
80861;PMS5003;71798;54.942;73.444;2023-10-09T00:31:23;6.25;5.75;3.00
80861;PMS5003;71798;54.942;73.444;2023-10-09T00:33:58;6.00;5.00;3.00
80861;PMS5003;71798;54.942;73.444;2023-10-09T00:36:46;4.00;4.00;2.50
80861;PMS5003;71798;54.942;73.444;2023-10-09T00:39:18;6.00;5.00;3.00
80861;PMS5003;71798;54.942;73.444;2023-10-09T00:42:11;4.00;3.25;2.50
80861;PMS5003;71798;54.942;73.444;2023-10-09T00:44:41;6.00;5.00;3.00
80861;PMS5003;71798;54.942;73.444;2023-10-09T00:47:13;7.00;6.50;4.00
80861;PMS5003;71798;54.942;73.444;2023-10-09T00:49:54;16.00;13.00;6.00
80861;PMS5003;71798;54.942;73.444;2023-10-09T00:52:39;6.75;5.50;3.50
80861;PMS5003;71798;54.942;73.444;2023-10-09T00:55:45;6.25;6.00;3.00
80861;PMS5003;71798;54.942;73.444;2023-10-09T00:58:18;6.00;6.00;4.00
80861;PMS5003;71798;54.942;73.444;2023-10-09T01:00:52;5.00;4.00;3.00
80861;PMS5003;71798;54.942;73.444;2023-10-09T01:03:20;5.75;5.00;3.00
80861;PMS5003;71798;54.942;73.444;2023-10-09T01:05:50;6.75;6.00;3.75
80861;PMS5003;71798;54.942;73.444;2023-10-09T01:08:39;7.00;7.00;4.00
80861;PMS5003;71798;54.942;73.444;2023-10-09T01:11:10;7.00;6.00;4.00
80861;PMS5003;71798;54.942;73.444;2023-10-09T01:13:46;5.00;4.75;3.00
80861;PMS5003;71798;54.942;73.444;2023-10-09T01:16:16;4.00;3.75;3.00
80861;PMS5003;71798;54.942;73.444;2023-10-09T01:18:44;6.00;6.00;3.00
80861;PMS5003;71798;54.942;73.444;2023-10-09T01:21:13;5.00;5.00;3.00
80861;PMS5003;71798;54.942;73.444;2023-10-09T01:23:44;6.50;6.00;4.00
80861;PMS5003;71798;54.942;73.444;2023-10-09T01:26:40;7.00;6.00;4.00
80861;PMS5003;71798;54.942;73.444;2023-10-09T01:29:16;6.00;5.00;3.00
80861;PMS5003;71798;54.942;73.444;2023-10-09T01:31:50;7.50;6.00;3.00
80861;PMS5003;71798;54.942;73.444;2023-10-09T01:34:22;6.00;5.00;3.00
80861;PMS5003;71798;54.942;73.444;2023-10-09T01:37:12;6.00;5.75;3.25
80861;PMS5003;71798;54.942;73.444;2023-10-09T01:39:46;6.00;5.00;3.00
80861;PMS5003;71798;54.942;73.444;2023-10-09T01:42:17;5.75;5.00;3.00
80861;PMS5003;71798;54.942;73.444;2023-10-09T01:45:01;6.00;5.00;3.00
80861;PMS5003;71798;54.942;73.444;2023-10-09T01:47:52;9.00;7.00;5.00
80861;PMS5003;71798;54.942;73.444;2023-10-09T01:50:21;6.00;5.00;2.00
80861;PMS5003;71798;54.942;73.444;2023-10-09T01:52:58;4.00;4.00;3.00
80861;PMS5003;71798;54.942;73.444;2023-10-09T01:55:30;5.00;5.00;3.00
80861;PMS5003;71798;54.942;73.444;2023-10-09T01:58:03;7.75;6.00;3.75
80861;PMS5003;71798;54.942;73.444;2023-10-09T02:00:50;5.75;5.00;3.00
80861;PMS5003;71798;54.942;73.444;2023-10-09T02:03:29;7.00;6.00;4.00
80861;PMS5003;71798;54.942;73.444;2023-10-09T02:06:01;8.00;6.00;4.00
80861;PMS5003;71798;54.942;73.444;2023-10-09T02:08:45;6.00;5.00;3.00
80861;PMS5003;71798;54.942;73.444;2023-10-09T02:11:18;8.00;7.00;4.50
80861;PMS5003;71798;54.942;73.444;2023-10-09T02:13:51;6.50;6.00;3.00
80861;PMS5003;71798;54.942;73.444;2023-10-09T02:16:25;5.00;5.00;3.00
80861;PMS5003;71798;54.942;73.444;2023-10-09T02:18:56;5.00;5.00;3.00
80861;PMS5003;71798;54.942;73.444;2023-10-09T02:21:26;6.00;5.00;4.00
80861;PMS5003;71798;54.942;73.444;2023-10-09T02:24:02;6.25;6.00;3.25
80861;PMS5003;71798;54.942;73.444;2023-10-09T02:26:38;6.00;5.00;3.00
80861;PMS5003;71798;54.942;73.444;2023-10-09T02:29:08;7.50;6.00;4.00
80861;PMS5003;71798;54.942;73.444;2023-10-09T02:31:47;6.00;4.75;3.00
80861;PMS5003;71798;54.942;73.444;2023-10-09T02:34:18;6.00;5.75;4.00
80861;PMS5003;71798;54.942;73.444;2023-10-09T02:36:52;7.00;6.00;4.00
80861;PMS5003;71798;54.942;73.444;2023-10-09T02:39:35;5.25;5.00;3.00
80861;PMS5003;71798;54.942;73.444;2023-10-09T02:42:16;6.25;5.25;4.00
80861;PMS5003;71798;54.942;73.444;2023-10-09T02:44:50;8.00;7.00;4.00
80861;PMS5003;71798;54.942;73.444;2023-10-09T02:48:20;8.00;6.25;4.00
80861;PMS5003;71798;54.942;73.444;2023-10-09T02:51:52;7.00;6.00;4.00
80861;PMS5003;71798;54.942;73.444;2023-10-09T02:55:48;5.75;5.00;3.00
80861;PMS5003;71798;54.942;73.444;2023-10-09T02:59:19;6.00;5.00;4.00
80861;PMS5003;71798;54.942;73.444;2023-10-09T03:02:50;10.75;9.00;6.00
80861;PMS5003;71798;54.942;73.444;2023-10-09T03:06:21;11.25;9.00;5.75
80861;PMS5003;71798;54.942;73.444;2023-10-09T03:09:52;9.00;8.00;4.00
80861;PMS5003;71798;54.942;73.444;2023-10-09T03:13:23;8.25;7.00;4.00
80861;PMS5003;71798;54.942;73.444;2023-10-09T03:17:19;9.00;8.00;5.00
80861;PMS5003;71798;54.942;73.444;2023-10-09T03:20:50;10.00;7.00;5.00
80861;PMS5003;71798;54.942;73.444;2023-10-09T03:24:22;10.50;8.50;5.75
80861;PMS5003;71798;54.942;73.444;2023-10-09T03:27:52;10.75;9.00;5.25
80861;PMS5003;71798;54.942;73.444;2023-10-09T03:31:23;9.00;8.00;5.00
80861;PMS5003;71798;54.942;73.444;2023-10-09T03:34:55;7.00;6.25;4.25
80861;PMS5003;71798;54.942;73.444;2023-10-09T03:38:50;5.00;5.00;3.00
80861;PMS5003;71798;54.942;73.444;2023-10-09T03:42:22;7.50;6.00;3.00
80861;PMS5003;71798;54.942;73.444;2023-10-09T03:45:53;9.00;7.00;4.00
80861;PMS5003;71798;54.942;73.444;2023-10-09T03:49:24;5.00;5.00;3.00
80861;PMS5003;71798;54.942;73.444;2023-10-09T03:52:56;7.75;5.75;3.00
80861;PMS5003;71798;54.942;73.444;2023-10-09T03:56:27;8.00;7.00;4.00
80861;PMS5003;71798;54.942;73.444;2023-10-09T04:03:34;4.50;4.00;3.00
80861;PMS5003;71798;54.942;73.444;2023-10-09T04:07:05;5.00;4.00;2.75
80861;PMS5003;71798;54.942;73.444;2023-10-09T04:09:32;6.00;5.00;2.00
80861;PMS5003;71798;54.942;73.444;2023-10-09T04:12:05;7.00;6.00;4.00
80861;PMS5003;71798;54.942;73.444;2023-10-09T04:14:38;6.00;5.00;3.00
80861;PMS5003;71798;54.942;73.444;2023-10-09T04:17:15;6.00;5.00;4.00
80861;PMS5003;71798;54.942;73.444;2023-10-09T04:19:50;5.50;4.50;2.25
80861;PMS5003;71798;54.942;73.444;2023-10-09T04:22:35;6.00;5.00;3.00
80861;PMS5003;71798;54.942;73.444;2023-10-09T04:25:06;6.00;5.00;3.00
80861;PMS5003;71798;54.942;73.444;2023-10-09T04:27:41;6.00;5.00;3.00
80861;PMS5003;71798;54.942;73.444;2023-10-09T04:30:07;8.00;6.00;4.00
80861;PMS5003;71798;54.942;73.444;2023-10-09T04:32:33;6.00;5.00;3.00
80861;PMS5003;71798;54.942;73.444;2023-10-09T04:35:00;7.00;6.00;3.00
80861;PMS5003;71798;54.942;73.444;2023-10-09T04:37:45;5.00;5.00;3.00
80861;PMS5003;71798;54.942;73.444;2023-10-09T04:40:18;6.00;5.00;3.00
80861;PMS5003;71798;54.942;73.444;2023-10-09T04:43:13;7.50;6.00;3.25
80861;PMS5003;71798;54.942;73.444;2023-10-09T04:45:50;6.00;5.00;4.00
80861;PMS5003;71798;54.942;73.444;2023-10-09T04:48:38;6.00;5.00;4.00
80861;PMS5003;71798;54.942;73.444;2023-10-09T04:51:05;9.00;7.00;4.00
80861;PMS5003;71798;54.942;73.444;2023-10-09T04:53:47;8.75;7.25;4.75
80861;PMS5003;71798;54.942;73.444;2023-10-09T04:56:36;9.75;8.50;4.75
80861;PMS5003;71798;54.942;73.444;2023-10-09T04:59:17;9.25;8.00;5.00
80861;PMS5003;71798;54.942;73.444;2023-10-09T05:01:44;7.25;6.00;3.00
80861;PMS5003;71798;54.942;73.444;2023-10-09T05:04:25;6.00;5.00;4.00
80861;PMS5003;71798;54.942;73.444;2023-10-09T05:07:00;8.00;7.00;4.00
80861;PMS5003;71798;54.942;73.444;2023-10-09T05:09:46;8.00;6.00;3.00
80861;PMS5003;71798;54.942;73.444;2023-10-09T05:12:21;7.00;6.00;4.00
80861;PMS5003;71798;54.942;73.444;2023-10-09T05:14:52;8.00;7.00;4.00
80861;PMS5003;71798;54.942;73.444;2023-10-09T05:17:39;6.50;6.00;4.00
80861;PMS5003;71798;54.942;73.444;2023-10-09T05:20:05;9.00;7.25;4.00
80861;PMS5003;71798;54.942;73.444;2023-10-09T05:22:50;6.00;5.00;3.00
80861;PMS5003;71798;54.942;73.444;2023-10-09T05:25:34;10.00;8.00;5.00
80861;PMS5003;71798;54.942;73.444;2023-10-09T05:28:19;7.75;7.00;5.00
80861;PMS5003;71798;54.942;73.444;2023-10-09T05:30:57;11.00;8.00;5.00
80861;PMS5003;71798;54.942;73.444;2023-10-09T05:33:34;8.75;7.00;4.00
80861;PMS5003;71798;54.942;73.444;2023-10-09T05:36:03;9.75;7.00;4.00
80861;PMS5003;71798;54.942;73.444;2023-10-09T05:38:47;8.00;7.00;5.00
80861;PMS5003;71798;54.942;73.444;2023-10-09T05:41:24;7.50;6.00;4.00
80861;PMS5003;71798;54.942;73.444;2023-10-09T05:44:11;9.25;8.00;5.00
80861;PMS5003;71798;54.942;73.444;2023-10-09T05:46:56;9.00;8.00;4.00
80861;PMS5003;71798;54.942;73.444;2023-10-09T05:49:51;11.75;10.00;6.00
80861;PMS5003;71798;54.942;73.444;2023-10-09T05:52:35;10.00;8.00;5.00
80861;PMS5003;71798;54.942;73.444;2023-10-09T05:55:04;6.00;5.00;4.00
80861;PMS5003;71798;54.942;73.444;2023-10-09T05:57:49;8.00;7.00;4.00
80861;PMS5003;71798;54.942;73.444;2023-10-09T06:00:22;13.00;11.00;6.00
80861;PMS5003;71798;54.942;73.444;2023-10-09T06:03:06;10.00;8.00;5.00
80861;PMS5003;71798;54.942;73.444;2023-10-09T06:05:48;10.00;8.00;4.00
80861;PMS5003;71798;54.942;73.444;2023-10-09T06:08:30;13.25;11.00;6.00
80861;PMS5003;71798;54.942;73.444;2023-10-09T06:11:09;11.00;10.00;5.00
80861;PMS5003;71798;54.942;73.444;2023-10-09T06:13:54;29.00;24.00;13.50
80861;PMS5003;71798;54.942;73.444;2023-10-09T06:16:33;37.50;27.50;15.00
80861;PMS5003;71798;54.942;73.444;2023-10-09T06:19:12;21.00;17.50;10.00
80861;PMS5003;71798;54.942;73.444;2023-10-09T06:21:45;15.00;13.00;6.00
80861;PMS5003;71798;54.942;73.444;2023-10-09T06:24:21;22.00;18.00;12.00
80861;PMS5003;71798;54.942;73.444;2023-10-09T06:27:17;16.25;13.25;9.00
80861;PMS5003;71798;54.942;73.444;2023-10-09T06:30:12;17.00;15.00;9.00
80861;PMS5003;71798;54.942;73.444;2023-10-09T06:32:50;17.75;13.75;8.00
80861;PMS5003;71798;54.942;73.444;2023-10-09T06:35:28;15.00;12.00;7.00
80861;PMS5003;71798;54.942;73.444;2023-10-09T06:37:58;16.00;14.00;9.00
80861;PMS5003;71798;54.942;73.444;2023-10-09T06:40:27;27.00;23.75;13.75
80861;PMS5003;71798;54.942;73.444;2023-10-09T06:43:19;24.50;20.50;12.00
80861;PMS5003;71798;54.942;73.444;2023-10-09T06:45:55;17.00;15.00;9.00
80861;PMS5003;71798;54.942;73.444;2023-10-09T06:48:44;12.00;10.00;6.00
80861;PMS5003;71798;54.942;73.444;2023-10-09T06:51:12;14.00;12.00;8.00
80861;PMS5003;71798;54.942;73.444;2023-10-09T06:53:55;16.00;14.00;9.00
80861;PMS5003;71798;54.942;73.444;2023-10-09T06:57:23;16.00;13.00;8.00
80861;PMS5003;71798;54.942;73.444;2023-10-09T07:00:55;14.25;13.00;7.25
80861;PMS5003;71798;54.942;73.444;2023-10-09T07:04:26;13.75;11.75;7.00
80861;PMS5003;71798;54.942;73.444;2023-10-09T07:07:57;15.00;12.50;8.00
80861;PMS5003;71798;54.942;73.444;2023-10-09T07:10:42;15.00;12.00;7.00
80861;PMS5003;71798;54.942;73.444;2023-10-09T07:13:08;18.00;16.00;10.00
80861;PMS5003;71798;54.942;73.444;2023-10-09T07:15:42;12.75;10.50;6.75
80861;PMS5003;71798;54.942;73.444;2023-10-09T07:18:26;15.00;13.75;9.00
80861;PMS5003;71798;54.942;73.444;2023-10-09T07:21:06;19.00;16.25;9.00
80861;PMS5003;71798;54.942;73.444;2023-10-09T07:23:37;14.50;12.00;7.00
80861;PMS5003;71798;54.942;73.444;2023-10-09T07:26:13;14.00;12.00;8.00
80861;PMS5003;71798;54.942;73.444;2023-10-09T07:28:48;15.25;12.75;8.00
80861;PMS5003;71798;54.942;73.444;2023-10-09T07:31:18;15.00;13.50;9.00
80861;PMS5003;71798;54.942;73.444;2023-10-09T07:33:50;15.00;12.00;8.00
80861;PMS5003;71798;54.942;73.444;2023-10-09T07:36:17;16.00;13.00;7.25
80861;PMS5003;71798;54.942;73.444;2023-10-09T07:38:55;16.00;14.00;9.00
80861;PMS5003;71798;54.942;73.444;2023-10-09T07:41:21;13.50;11.50;7.75
80861;PMS5003;71798;54.942;73.444;2023-10-09T07:43:47;14.00;12.00;7.00
80861;PMS5003;71798;54.942;73.444;2023-10-09T07:46:15;15.50;13.00;7.50
80861;PMS5003;71798;54.942;73.444;2023-10-09T07:49:02;14.25;12.00;8.00
80861;PMS5003;71798;54.942;73.444;2023-10-09T07:51:35;14.50;12.00;8.00
80861;PMS5003;71798;54.942;73.444;2023-10-09T07:54:02;11.75;10.50;7.00
80861;PMS5003;71798;54.942;73.444;2023-10-09T07:56:34;12.00;11.00;7.00
80861;PMS5003;71798;54.942;73.444;2023-10-09T07:59:07;14.00;11.00;6.00
80861;PMS5003;71798;54.942;73.444;2023-10-09T08:01:40;10.00;8.00;4.00
80861;PMS5003;71798;54.942;73.444;2023-10-09T08:04:21;9.00;8.00;5.00
80861;PMS5003;71798;54.942;73.444;2023-10-09T08:07:04;12.00;10.00;6.50
80861;PMS5003;71798;54.942;73.444;2023-10-09T08:09:33;12.75;11.00;7.25
80861;PMS5003;71798;54.942;73.444;2023-10-09T08:12:13;10.00;9.00;6.00
80861;PMS5003;71798;54.942;73.444;2023-10-09T08:14:42;12.00;9.00;6.00
80861;PMS5003;71798;54.942;73.444;2023-10-09T08:17:14;12.00;10.25;7.00
80861;PMS5003;71798;54.942;73.444;2023-10-09T08:19:47;9.00;8.00;5.00
80861;PMS5003;71798;54.942;73.444;2023-10-09T08:22:22;9.75;7.25;5.00
80861;PMS5003;71798;54.942;73.444;2023-10-09T08:24:49;9.00;7.00;4.00
80861;PMS5003;71798;54.942;73.444;2023-10-09T08:27:28;10.75;9.00;6.00
80861;PMS5003;71798;54.942;73.444;2023-10-09T08:30:00;11.00;9.50;6.00
80861;PMS5003;71798;54.942;73.444;2023-10-09T08:32:48;9.25;8.00;5.25
80861;PMS5003;71798;54.942;73.444;2023-10-09T08:35:49;8.25;7.50;5.50
80861;PMS5003;71798;54.942;73.444;2023-10-09T08:38:17;10.00;9.00;6.00
80861;PMS5003;71798;54.942;73.444;2023-10-09T08:40:49;9.50;8.50;5.25
80861;PMS5003;71798;54.942;73.444;2023-10-09T08:43:19;10.00;9.00;6.00
80861;PMS5003;71798;54.942;73.444;2023-10-09T08:45:55;8.00;7.00;5.00
80861;PMS5003;71798;54.942;73.444;2023-10-09T08:48:27;8.00;7.00;4.00
80861;PMS5003;71798;54.942;73.444;2023-10-09T08:50:55;7.00;7.25;4.75
80861;PMS5003;71798;54.942;73.444;2023-10-09T08:53:24;11.00;10.00;6.00
80861;PMS5003;71798;54.942;73.444;2023-10-09T08:55:50;11.50;9.00;5.25
80861;PMS5003;71798;54.942;73.444;2023-10-09T08:58:17;13.00;11.00;6.25
80861;PMS5003;71798;54.942;73.444;2023-10-09T09:00:56;9.00;8.00;5.00
80861;PMS5003;71798;54.942;73.444;2023-10-09T09:03:25;11.00;9.00;5.00
80861;PMS5003;71798;54.942;73.444;2023-10-09T09:05:58;10.00;8.75;5.00
80861;PMS5003;71798;54.942;73.444;2023-10-09T09:08:27;11.00;9.00;5.00
80861;PMS5003;71798;54.942;73.444;2023-10-09T09:11:15;11.00;9.00;6.00
80861;PMS5003;71798;54.942;73.444;2023-10-09T09:13:44;8.00;7.00;4.00
80861;PMS5003;71798;54.942;73.444;2023-10-09T09:16:24;8.00;6.25;4.00
80861;PMS5003;71798;54.942;73.444;2023-10-09T09:19:04;9.00;8.00;5.00
80861;PMS5003;71798;54.942;73.444;2023-10-09T09:21:36;11.75;9.00;6.00
80861;PMS5003;71798;54.942;73.444;2023-10-09T09:24:07;8.75;8.00;5.00
80861;PMS5003;71798;54.942;73.444;2023-10-09T09:26:54;6.75;6.25;4.00
80861;PMS5003;71798;54.942;73.444;2023-10-09T09:32:04;11.00;9.00;5.00
80861;PMS5003;71798;54.942;73.444;2023-10-09T09:34:46;12.00;9.00;5.00
80861;PMS5003;71798;54.942;73.444;2023-10-09T09:37:18;12.75;11.00;7.00
80861;PMS5003;71798;54.942;73.444;2023-10-09T09:39:44;10.00;9.00;5.50
80861;PMS5003;71798;54.942;73.444;2023-10-09T09:42:17;11.00;10.00;6.00
80861;PMS5003;71798;54.942;73.444;2023-10-09T09:44:53;12.75;12.00;8.00
80861;PMS5003;71798;54.942;73.444;2023-10-09T09:47:19;10.50;9.25;5.25
80861;PMS5003;71798;54.942;73.444;2023-10-09T09:49:53;11.00;9.75;5.00
80861;PMS5003;71798;54.942;73.444;2023-10-09T09:52:26;11.00;10.00;7.00
80861;PMS5003;71798;54.942;73.444;2023-10-09T09:54:53;10.50;9.00;5.00
80861;PMS5003;71798;54.942;73.444;2023-10-09T09:57:20;12.00;11.00;6.25
80861;PMS5003;71798;54.942;73.444;2023-10-09T09:59:51;11.00;9.75;6.00
80861;PMS5003;71798;54.942;73.444;2023-10-09T10:02:20;10.00;9.00;5.50
80861;PMS5003;71798;54.942;73.444;2023-10-09T10:04:54;14.00;12.00;7.00
80861;PMS5003;71798;54.942;73.444;2023-10-09T10:07:22;10.00;9.00;5.25
80861;PMS5003;71798;54.942;73.444;2023-10-09T10:09:50;14.00;12.00;7.00
80861;PMS5003;71798;54.942;73.444;2023-10-09T10:15:07;15.00;13.00;7.00
80861;PMS5003;71798;54.942;73.444;2023-10-09T10:20:26;10.00;9.00;6.00
80861;PMS5003;71798;54.942;73.444;2023-10-09T10:25:51;13.00;11.00;7.00
80861;PMS5003;71798;54.942;73.444;2023-10-09T10:28:26;14.00;13.00;8.00
80861;PMS5003;71798;54.942;73.444;2023-10-09T10:31:04;13.00;11.00;7.00
80861;PMS5003;71798;54.942;73.444;2023-10-09T10:36:19;14.00;12.00;8.00
80861;PMS5003;71798;54.942;73.444;2023-10-09T10:39:05;17.00;14.00;9.00
80861;PMS5003;71798;54.942;73.444;2023-10-09T10:41:35;14.00;12.00;7.00
80861;PMS5003;71798;54.942;73.444;2023-10-09T10:44:30;14.00;12.00;8.00
80861;PMS5003;71798;54.942;73.444;2023-10-09T10:47:03;10.00;8.00;5.75
80861;PMS5003;71798;54.942;73.444;2023-10-09T10:49:29;13.00;11.00;6.00
80861;PMS5003;71798;54.942;73.444;2023-10-09T10:52:06;13.00;10.75;7.00
80861;PMS5003;71798;54.942;73.444;2023-10-09T10:54:42;12.25;10.75;7.00
80861;PMS5003;71798;54.942;73.444;2023-10-09T10:57:18;16.00;13.00;8.00
80861;PMS5003;71798;54.942;73.444;2023-10-09T11:00:10;16.50;14.25;9.00
80861;PMS5003;71798;54.942;73.444;2023-10-09T11:02:59;12.00;10.50;7.00
80861;PMS5003;71798;54.942;73.444;2023-10-09T11:05:41;13.00;10.00;7.00
80861;PMS5003;71798;54.942;73.444;2023-10-09T11:08:10;10.25;9.75;6.00
80861;PMS5003;71798;54.942;73.444;2023-10-09T11:10:37;12.00;10.00;6.00
80861;PMS5003;71798;54.942;73.444;2023-10-09T11:13:25;14.00;13.00;7.25
80861;PMS5003;71798;54.942;73.444;2023-10-09T11:15:58;11.50;10.25;6.75
80861;PMS5003;71798;54.942;73.444;2023-10-09T11:19:03;10.50;9.50;6.00
80861;PMS5003;71798;54.942;73.444;2023-10-09T11:21:49;14.00;13.00;7.00
80861;PMS5003;71798;54.942;73.444;2023-10-09T11:24:25;15.00;12.50;7.25
80861;PMS5003;71798;54.942;73.444;2023-10-09T11:26:51;14.00;12.25;8.00
80861;PMS5003;71798;54.942;73.444;2023-10-09T11:29:21;10.75;9.75;6.00
80861;PMS5003;71798;54.942;73.444;2023-10-09T11:32:01;11.50;9.50;6.00
80861;PMS5003;71798;54.942;73.444;2023-10-09T11:34:28;12.25;11.00;6.50
80861;PMS5003;71798;54.942;73.444;2023-10-09T11:36:58;14.00;12.50;7.00
80861;PMS5003;71798;54.942;73.444;2023-10-09T11:39:25;13.00;12.00;8.00
80861;PMS5003;71798;54.942;73.444;2023-10-09T11:42:04;12.00;10.00;6.00
80861;PMS5003;71798;54.942;73.444;2023-10-09T11:44:34;15.50;13.00;8.75
80861;PMS5003;71798;54.942;73.444;2023-10-09T11:47:00;14.00;12.00;7.00
80861;PMS5003;71798;54.942;73.444;2023-10-09T11:49:48;12.00;10.00;7.00
80861;PMS5003;71798;54.942;73.444;2023-10-09T11:52:22;14.00;12.00;7.00
80861;PMS5003;71798;54.942;73.444;2023-10-09T11:55:00;13.00;12.00;7.00
80861;PMS5003;71798;54.942;73.444;2023-10-09T11:57:28;19.25;16.50;9.25
80861;PMS5003;71798;54.942;73.444;2023-10-09T11:59:57;17.75;15.00;10.00
80861;PMS5003;71798;54.942;73.444;2023-10-09T12:02:23;21.00;18.00;11.25
80861;PMS5003;71798;54.942;73.444;2023-10-09T12:04:49;17.25;15.25;8.25
80861;PMS5003;71798;54.942;73.444;2023-10-09T12:07:15;14.25;13.00;7.75
80861;PMS5003;71798;54.942;73.444;2023-10-09T12:09:50;17.00;15.00;9.00
80861;PMS5003;71798;54.942;73.444;2023-10-09T12:12:22;14.00;12.00;8.00
80861;PMS5003;71798;54.942;73.444;2023-10-09T12:14:52;17.75;15.00;8.00
80861;PMS5003;71798;54.942;73.444;2023-10-09T12:17:27;11.50;9.50;5.75
80861;PMS5003;71798;54.942;73.444;2023-10-09T12:19:53;16.50;14.00;7.50
80861;PMS5003;71798;54.942;73.444;2023-10-09T12:22:21;17.75;15.00;10.00
80861;PMS5003;71798;54.942;73.444;2023-10-09T12:24:52;15.00;13.50;8.50
80861;PMS5003;71798;54.942;73.444;2023-10-09T12:27:30;14.25;12.25;7.75
80861;PMS5003;71798;54.942;73.444;2023-10-09T12:30:04;17.00;14.00;8.25
80861;PMS5003;71798;54.942;73.444;2023-10-09T12:32:31;17.00;14.00;9.00
80861;PMS5003;71798;54.942;73.444;2023-10-09T12:35:02;14.00;12.25;7.25
80861;PMS5003;71798;54.942;73.444;2023-10-09T12:37:28;16.00;13.00;7.50
80861;PMS5003;71798;54.942;73.444;2023-10-09T12:39:55;19.50;15.25;9.00
80861;PMS5003;71798;54.942;73.444;2023-10-09T12:42:22;15.75;12.00;7.00
80861;PMS5003;71798;54.942;73.444;2023-10-09T12:44:48;14.00;13.00;9.00
80861;PMS5003;71798;54.942;73.444;2023-10-09T12:47:15;13.00;12.00;8.00
80861;PMS5003;71798;54.942;73.444;2023-10-09T12:49:41;15.25;12.00;7.75
80861;PMS5003;71798;54.942;73.444;2023-10-09T12:52:07;16.50;15.00;9.75
80861;PMS5003;71798;54.942;73.444;2023-10-09T12:54:42;18.00;15.00;9.00
80861;PMS5003;71798;54.942;73.444;2023-10-09T12:57:09;19.00;16.00;10.00
80861;PMS5003;71798;54.942;73.444;2023-10-09T12:59:40;15.00;13.00;8.00
80861;PMS5003;71798;54.942;73.444;2023-10-09T13:02:14;16.50;14.00;8.00
80861;PMS5003;71798;54.942;73.444;2023-10-09T13:04:54;15.00;13.50;9.00
80861;PMS5003;71798;54.942;73.444;2023-10-09T13:07:20;11.50;9.50;5.25
80861;PMS5003;71798;54.942;73.444;2023-10-09T13:09:48;12.00;11.00;7.00
80861;PMS5003;71798;54.942;73.444;2023-10-09T13:12:41;17.00;14.00;9.00
80861;PMS5003;71798;54.942;73.444;2023-10-09T13:15:08;16.50;13.50;8.00
80861;PMS5003;71798;54.942;73.444;2023-10-09T13:17:38;16.50;13.75;8.00
80861;PMS5003;71798;54.942;73.444;2023-10-09T13:20:04;14.50;13.50;8.00
80861;PMS5003;71798;54.942;73.444;2023-10-09T13:22:43;18.00;15.25;9.75
80861;PMS5003;71798;54.942;73.444;2023-10-09T13:25:12;18.50;16.00;9.25
80861;PMS5003;71798;54.942;73.444;2023-10-09T13:27:51;15.00;12.25;6.00
80861;PMS5003;71798;54.942;73.444;2023-10-09T13:30:17;14.25;11.75;7.25
80861;PMS5003;71798;54.942;73.444;2023-10-09T13:32:48;16.25;14.00;8.00
80861;PMS5003;71798;54.942;73.444;2023-10-09T13:35:18;12.00;10.50;7.00
80861;PMS5003;71798;54.942;73.444;2023-10-09T13:37:45;14.75;13.00;8.00
80861;PMS5003;71798;54.942;73.444;2023-10-09T13:40:21;16.50;13.50;8.00
80861;PMS5003;71798;54.942;73.444;2023-10-09T13:42:53;14.00;12.25;7.00
80861;PMS5003;71798;54.942;73.444;2023-10-09T13:45:25;18.00;15.75;10.00
80861;PMS5003;71798;54.942;73.444;2023-10-09T13:47:55;21.00;17.25;10.00
80861;PMS5003;71798;54.942;73.444;2023-10-09T13:50:25;28.00;23.00;13.75
80861;PMS5003;71798;54.942;73.444;2023-10-09T13:52:55;29.00;24.00;14.75
80861;PMS5003;71798;54.942;73.444;2023-10-09T13:55:22;27.00;21.75;12.00
80861;PMS5003;71798;54.942;73.444;2023-10-09T13:57:48;17.00;15.00;9.00
80861;PMS5003;71798;54.942;73.444;2023-10-09T14:00:14;17.00;16.00;10.00
80861;PMS5003;71798;54.942;73.444;2023-10-09T14:02:58;21.00;18.00;12.00
80861;PMS5003;71798;54.942;73.444;2023-10-09T14:05:29;18.00;16.00;10.00
80861;PMS5003;71798;54.942;73.444;2023-10-09T14:09:01;15.00;13.00;9.00
80861;PMS5003;71798;54.942;73.444;2023-10-09T14:12:31;17.00;14.00;10.00
80861;PMS5003;71798;54.942;73.444;2023-10-09T14:16:02;19.00;14.75;9.00
80861;PMS5003;71798;54.942;73.444;2023-10-09T14:19:33;13.50;12.00;7.00
80861;PMS5003;71798;54.942;73.444;2023-10-09T14:23:04;14.00;13.00;8.00
80861;PMS5003;71798;54.942;73.444;2023-10-09T14:26:35;15.25;13.00;7.50
80861;PMS5003;71798;54.942;73.444;2023-10-09T14:30:09;13.75;11.50;6.75
80861;PMS5003;71798;54.942;73.444;2023-10-09T14:33:40;13.25;11.25;6.50
80861;PMS5003;71798;54.942;73.444;2023-10-09T14:37:12;10.50;9.75;6.00
80861;PMS5003;71798;54.942;73.444;2023-10-09T14:40:43;11.00;10.00;7.00
80861;PMS5003;71798;54.942;73.444;2023-10-09T14:44:13;10.00;9.00;5.25
80861;PMS5003;71798;54.942;73.444;2023-10-09T14:47:44;12.00;10.00;6.50
80861;PMS5003;71798;54.942;73.444;2023-10-09T14:51:15;10.50;9.00;5.00
80861;PMS5003;71798;54.942;73.444;2023-10-09T14:54:46;12.00;10.00;6.00
80861;PMS5003;71798;54.942;73.444;2023-10-09T14:58:17;10.00;9.00;6.00
80861;PMS5003;71798;54.942;73.444;2023-10-09T15:01:48;10.00;8.00;5.00
80861;PMS5003;71798;54.942;73.444;2023-10-09T15:05:19;8.00;7.00;5.00
80861;PMS5003;71798;54.942;73.444;2023-10-09T15:12:26;8.00;8.00;5.00
80861;PMS5003;71798;54.942;73.444;2023-10-09T15:19:33;6.75;6.50;4.25
80861;PMS5003;71798;54.942;73.444;2023-10-09T15:23:05;11.00;10.00;5.00
80861;PMS5003;71798;54.942;73.444;2023-10-09T15:26:35;7.25;7.00;4.00
80861;PMS5003;71798;54.942;73.444;2023-10-09T15:33:42;8.50;7.00;4.00
80861;PMS5003;71798;54.942;73.444;2023-10-09T15:37:13;7.75;6.75;4.00
80861;PMS5003;71798;54.942;73.444;2023-10-09T15:40:44;7.00;6.00;4.00
80861;PMS5003;71798;54.942;73.444;2023-10-09T15:44:16;7.25;6.50;5.00
80861;PMS5003;71798;54.942;73.444;2023-10-09T15:47:50;7.75;7.00;4.00
80861;PMS5003;71798;54.942;73.444;2023-10-09T15:51:45;9.00;8.00;4.00
80861;PMS5003;71798;54.942;73.444;2023-10-09T15:58:52;7.75;6.50;4.00
80861;PMS5003;71798;54.942;73.444;2023-10-09T16:02:23;7.00;6.00;4.00
80861;PMS5003;71798;54.942;73.444;2023-10-09T16:05:57;6.00;5.00;3.50